sensor_id;sensor_type;location;lat;lon;timestamp;P1;durP1;ratioP1;P2;durP2;ratioP2
41309;SDS011;27057;51.438;-0.010;2024-02-21T00:00:08;22.17;;;4.20;;
41309;SDS011;27057;51.438;-0.010;2024-02-21T00:02:38;25.35;;;3.53;;
41309;SDS011;27057;51.438;-0.010;2024-02-21T00:05:05;31.10;;;3.92;;
41309;SDS011;27057;51.438;-0.010;2024-02-21T00:07:33;31.05;;;5.47;;
41309;SDS011;27057;51.438;-0.010;2024-02-21T00:10:00;27.90;;;3.90;;
41309;SDS011;27057;51.438;-0.010;2024-02-21T00:12:28;25.60;;;3.88;;
41309;SDS011;27057;51.438;-0.010;2024-02-21T00:14:55;20.15;;;4.47;;
41309;SDS011;27057;51.438;-0.010;2024-02-21T00:17:24;28.98;;;4.03;;
41309;SDS011;27057;51.438;-0.010;2024-02-21T00:19:53;38.45;;;5.20;;
41309;SDS011;27057;51.438;-0.010;2024-02-21T00:22:20;15.73;;;3.63;;
41309;SDS011;27057;51.438;-0.010;2024-02-21T00:24:48;29.35;;;3.85;;
41309;SDS011;27057;51.438;-0.010;2024-02-21T00:27:15;36.60;;;5.05;;
41309;SDS011;27057;51.438;-0.010;2024-02-21T00:29:43;23.90;;;4.28;;
41309;SDS011;27057;51.438;-0.010;2024-02-21T00:32:10;23.23;;;4.18;;
41309;SDS011;27057;51.438;-0.010;2024-02-21T00:34:38;24.92;;;4.72;;
41309;SDS011;27057;51.438;-0.010;2024-02-21T00:37:05;20.60;;;3.55;;
41309;SDS011;27057;51.438;-0.010;2024-02-21T00:39:33;22.35;;;2.97;;
41309;SDS011;27057;51.438;-0.010;2024-02-21T00:42:00;37.50;;;5.45;;
41309;SDS011;27057;51.438;-0.010;2024-02-21T00:44:28;23.88;;;4.53;;
41309;SDS011;27057;51.438;-0.010;2024-02-21T00:46:55;13.65;;;3.65;;
41309;SDS011;27057;51.438;-0.010;2024-02-21T00:49:22;30.35;;;5.25;;
41309;SDS011;27057;51.438;-0.010;2024-02-21T00:51:50;31.00;;;4.38;;
41309;SDS011;27057;51.438;-0.010;2024-02-21T00:54:17;20.48;;;3.72;;
41309;SDS011;27057;51.438;-0.010;2024-02-21T00:56:45;37.15;;;4.80;;
41309;SDS011;27057;51.438;-0.010;2024-02-21T00:59:12;23.60;;;3.90;;
41309;SDS011;27057;51.438;-0.010;2024-02-21T01:01:40;29.80;;;4.40;;
41309;SDS011;27057;51.438;-0.010;2024-02-21T01:04:10;28.77;;;4.32;;
41309;SDS011;27057;51.438;-0.010;2024-02-21T01:06:39;28.52;;;5.10;;
41309;SDS011;27057;51.438;-0.010;2024-02-21T01:09:10;23.85;;;4.07;;
41309;SDS011;27057;51.438;-0.010;2024-02-21T01:11:38;22.30;;;3.30;;
41309;SDS011;27057;51.438;-0.010;2024-02-21T01:14:05;25.58;;;3.47;;
41309;SDS011;27057;51.438;-0.010;2024-02-21T01:16:33;24.38;;;3.28;;
41309;SDS011;27057;51.438;-0.010;2024-02-21T01:19:00;21.55;;;4.00;;
41309;SDS011;27057;51.438;-0.010;2024-02-21T01:21:28;15.57;;;3.35;;
41309;SDS011;27057;51.438;-0.010;2024-02-21T01:23:55;25.25;;;2.90;;
41309;SDS011;27057;51.438;-0.010;2024-02-21T01:26:23;25.65;;;3.67;;
41309;SDS011;27057;51.438;-0.010;2024-02-21T01:28:50;32.33;;;3.72;;
41309;SDS011;27057;51.438;-0.010;2024-02-21T01:31:21;7.57;;;2.00;;
41309;SDS011;27057;51.438;-0.010;2024-02-21T01:33:49;33.25;;;2.97;;
41309;SDS011;27057;51.438;-0.010;2024-02-21T01:36:16;23.27;;;3.75;;
41309;SDS011;27057;51.438;-0.010;2024-02-21T01:38:46;35.60;;;3.10;;
41309;SDS011;27057;51.438;-0.010;2024-02-21T01:41:13;22.63;;;3.63;;
41309;SDS011;27057;51.438;-0.010;2024-02-21T01:43:41;38.35;;;4.40;;
41309;SDS011;27057;51.438;-0.010;2024-02-21T01:46:09;24.83;;;3.28;;
41309;SDS011;27057;51.438;-0.010;2024-02-21T01:48:36;23.92;;;3.92;;
41309;SDS011;27057;51.438;-0.010;2024-02-21T01:51:04;20.45;;;2.78;;
41309;SDS011;27057;51.438;-0.010;2024-02-21T01:53:36;17.65;;;3.33;;
41309;SDS011;27057;51.438;-0.010;2024-02-21T01:56:07;22.50;;;3.22;;
41309;SDS011;27057;51.438;-0.010;2024-02-21T01:58:36;24.70;;;3.55;;
41309;SDS011;27057;51.438;-0.010;2024-02-21T02:01:05;27.90;;;3.95;;
41309;SDS011;27057;51.438;-0.010;2024-02-21T02:03:33;21.83;;;3.33;;
41309;SDS011;27057;51.438;-0.010;2024-02-21T02:06:00;17.55;;;2.45;;
41309;SDS011;27057;51.438;-0.010;2024-02-21T02:08:28;24.48;;;3.47;;
41309;SDS011;27057;51.438;-0.010;2024-02-21T02:10:56;34.50;;;3.72;;
41309;SDS011;27057;51.438;-0.010;2024-02-21T02:13:24;29.02;;;4.13;;
41309;SDS011;27057;51.438;-0.010;2024-02-21T02:15:51;37.45;;;4.70;;
41309;SDS011;27057;51.438;-0.010;2024-02-21T02:18:19;23.98;;;3.17;;
41309;SDS011;27057;51.438;-0.010;2024-02-21T02:20:47;27.30;;;4.93;;
41309;SDS011;27057;51.438;-0.010;2024-02-21T02:25:56;16.70;;;3.65;;
41309;SDS011;27057;51.438;-0.010;2024-02-21T02:28:24;36.75;;;4.45;;
41309;SDS011;27057;51.438;-0.010;2024-02-21T02:30:52;39.15;;;4.30;;
41309;SDS011;27057;51.438;-0.010;2024-02-21T02:33:19;24.70;;;3.20;;
41309;SDS011;27057;51.438;-0.010;2024-02-21T02:35:47;16.67;;;3.50;;
41309;SDS011;27057;51.438;-0.010;2024-02-21T02:38:14;42.63;;;4.97;;
41309;SDS011;27057;51.438;-0.010;2024-02-21T02:40:42;25.58;;;4.15;;
41309;SDS011;27057;51.438;-0.010;2024-02-21T02:43:10;37.30;;;4.82;;
41309;SDS011;27057;51.438;-0.010;2024-02-21T02:45:37;32.88;;;5.32;;
41309;SDS011;27057;51.438;-0.010;2024-02-21T02:48:05;36.60;;;5.43;;
41309;SDS011;27057;51.438;-0.010;2024-02-21T02:50:37;22.33;;;3.35;;
41309;SDS011;27057;51.438;-0.010;2024-02-21T02:53:05;23.58;;;3.38;;
41309;SDS011;27057;51.438;-0.010;2024-02-21T02:55:32;26.48;;;3.33;;
41309;SDS011;27057;51.438;-0.010;2024-02-21T02:58:01;26.88;;;4.10;;
41309;SDS011;27057;51.438;-0.010;2024-02-21T03:00:28;23.88;;;3.63;;
41309;SDS011;27057;51.438;-0.010;2024-02-21T03:02:56;20.02;;;4.10;;
41309;SDS011;27057;51.438;-0.010;2024-02-21T03:05:23;28.27;;;4.65;;
41309;SDS011;27057;51.438;-0.010;2024-02-21T03:07:51;31.00;;;3.95;;
41309;SDS011;27057;51.438;-0.010;2024-02-21T03:10:18;12.05;;;3.67;;
41309;SDS011;27057;51.438;-0.010;2024-02-21T03:12:46;29.42;;;4.70;;
41309;SDS011;27057;51.438;-0.010;2024-02-21T03:15:14;27.02;;;4.30;;
41309;SDS011;27057;51.438;-0.010;2024-02-21T03:17:41;16.25;;;2.45;;
41309;SDS011;27057;51.438;-0.010;2024-02-21T03:20:10;42.28;;;3.33;;
41309;SDS011;27057;51.438;-0.010;2024-02-21T03:22:39;26.52;;;4.15;;
41309;SDS011;27057;51.438;-0.010;2024-02-21T03:25:11;40.78;;;3.92;;
41309;SDS011;27057;51.438;-0.010;2024-02-21T03:27:39;19.23;;;3.05;;
41309;SDS011;27057;51.438;-0.010;2024-02-21T03:30:07;35.60;;;7.03;;
41309;SDS011;27057;51.438;-0.010;2024-02-21T03:32:35;29.25;;;4.00;;
41309;SDS011;27057;51.438;-0.010;2024-02-21T03:35:03;27.05;;;3.95;;
41309;SDS011;27057;51.438;-0.010;2024-02-21T03:37:33;19.92;;;3.83;;
41309;SDS011;27057;51.438;-0.010;2024-02-21T03:40:01;27.55;;;3.17;;
41309;SDS011;27057;51.438;-0.010;2024-02-21T03:42:29;19.75;;;2.88;;
41309;SDS011;27057;51.438;-0.010;2024-02-21T03:44:58;21.08;;;3.05;;
41309;SDS011;27057;51.438;-0.010;2024-02-21T03:47:25;22.35;;;4.85;;
41309;SDS011;27057;51.438;-0.010;2024-02-21T03:49:53;21.88;;;3.60;;
41309;SDS011;27057;51.438;-0.010;2024-02-21T03:52:20;26.73;;;4.20;;
41309;SDS011;27057;51.438;-0.010;2024-02-21T03:54:48;16.33;;;2.92;;
41309;SDS011;27057;51.438;-0.010;2024-02-21T03:57:15;14.90;;;2.15;;
41309;SDS011;27057;51.438;-0.010;2024-02-21T03:59:44;32.80;;;3.55;;
41309;SDS011;27057;51.438;-0.010;2024-02-21T04:02:11;22.85;;;2.72;;
41309;SDS011;27057;51.438;-0.010;2024-02-21T04:04:42;21.33;;;5.15;;
41309;SDS011;27057;51.438;-0.010;2024-02-21T04:07:13;28.92;;;3.17;;
41309;SDS011;27057;51.438;-0.010;2024-02-21T04:09:44;8.48;;;2.17;;
41309;SDS011;27057;51.438;-0.010;2024-02-21T04:12:11;16.77;;;2.38;;
41309;SDS011;27057;51.438;-0.010;2024-02-21T04:14:38;21.85;;;6.18;;
41309;SDS011;27057;51.438;-0.010;2024-02-21T04:17:09;16.60;;;2.58;;
41309;SDS011;27057;51.438;-0.010;2024-02-21T04:19:36;25.25;;;3.78;;
41309;SDS011;27057;51.438;-0.010;2024-02-21T04:22:04;23.02;;;2.90;;
41309;SDS011;27057;51.438;-0.010;2024-02-21T04:24:32;19.52;;;2.70;;
41309;SDS011;27057;51.438;-0.010;2024-02-21T04:26:59;15.13;;;2.50;;
41309;SDS011;27057;51.438;-0.010;2024-02-21T04:29:27;14.40;;;2.25;;
41309;SDS011;27057;51.438;-0.010;2024-02-21T04:31:55;18.70;;;2.78;;
41309;SDS011;27057;51.438;-0.010;2024-02-21T04:34:22;15.18;;;2.13;;
41309;SDS011;27057;51.438;-0.010;2024-02-21T04:36:50;24.63;;;4.22;;
41309;SDS011;27057;51.438;-0.010;2024-02-21T04:39:17;16.67;;;3.22;;
41309;SDS011;27057;51.438;-0.010;2024-02-21T04:41:45;24.92;;;2.72;;
41309;SDS011;27057;51.438;-0.010;2024-02-21T04:44:12;19.38;;;2.90;;
41309;SDS011;27057;51.438;-0.010;2024-02-21T04:46:41;24.60;;;3.42;;
41309;SDS011;27057;51.438;-0.010;2024-02-21T04:49:10;18.63;;;2.65;;
41309;SDS011;27057;51.438;-0.010;2024-02-21T04:51:40;15.75;;;2.10;;
41309;SDS011;27057;51.438;-0.010;2024-02-21T04:54:08;19.88;;;4.70;;
41309;SDS011;27057;51.438;-0.010;2024-02-21T04:56:35;20.38;;;3.90;;
41309;SDS011;27057;51.438;-0.010;2024-02-21T04:59:02;13.27;;;2.65;;
41309;SDS011;27057;51.438;-0.010;2024-02-21T05:01:30;19.38;;;2.85;;
41309;SDS011;27057;51.438;-0.010;2024-02-21T05:03:59;32.00;;;2.50;;
41309;SDS011;27057;51.438;-0.010;2024-02-21T05:06:26;31.45;;;3.38;;
41309;SDS011;27057;51.438;-0.010;2024-02-21T05:08:53;16.90;;;3.58;;
41309;SDS011;27057;51.438;-0.010;2024-02-21T05:11:22;8.85;;;1.85;;
41309;SDS011;27057;51.438;-0.010;2024-02-21T05:13:50;5.70;;;1.70;;
41309;SDS011;27057;51.438;-0.010;2024-02-21T05:16:17;20.73;;;3.22;;
41309;SDS011;27057;51.438;-0.010;2024-02-21T05:18:46;9.40;;;2.47;;
41309;SDS011;27057;51.438;-0.010;2024-02-21T05:21:14;21.90;;;2.58;;
41309;SDS011;27057;51.438;-0.010;2024-02-21T05:23:41;13.75;;;2.63;;
41309;SDS011;27057;51.438;-0.010;2024-02-21T05:26:09;24.58;;;2.33;;
41309;SDS011;27057;51.438;-0.010;2024-02-21T05:28:36;14.63;;;2.63;;
41309;SDS011;27057;51.438;-0.010;2024-02-21T05:31:05;17.40;;;2.45;;
41309;SDS011;27057;51.438;-0.010;2024-02-21T05:33:33;21.50;;;3.47;;
41309;SDS011;27057;51.438;-0.010;2024-02-21T05:36:00;12.23;;;2.65;;
41309;SDS011;27057;51.438;-0.010;2024-02-21T05:38:28;14.32;;;2.75;;
41309;SDS011;27057;51.438;-0.010;2024-02-21T05:40:55;22.25;;;2.60;;
41309;SDS011;27057;51.438;-0.010;2024-02-21T05:43:24;19.20;;;2.55;;
41309;SDS011;27057;51.438;-0.010;2024-02-21T05:45:51;26.92;;;4.78;;
41309;SDS011;27057;51.438;-0.010;2024-02-21T05:48:19;9.60;;;1.85;;
41309;SDS011;27057;51.438;-0.010;2024-02-21T05:50:47;12.43;;;2.20;;
41309;SDS011;27057;51.438;-0.010;2024-02-21T05:53:14;18.17;;;3.13;;
41309;SDS011;27057;51.438;-0.010;2024-02-21T05:55:42;26.60;;;2.42;;
41309;SDS011;27057;51.438;-0.010;2024-02-21T05:58:10;19.42;;;2.78;;
41309;SDS011;27057;51.438;-0.010;2024-02-21T06:00:40;26.42;;;3.25;;
41309;SDS011;27057;51.438;-0.010;2024-02-21T06:03:07;11.27;;;2.50;;
41309;SDS011;27057;51.438;-0.010;2024-02-21T06:05:39;18.17;;;3.33;;
41309;SDS011;27057;51.438;-0.010;2024-02-21T06:08:08;17.35;;;3.00;;
41309;SDS011;27057;51.438;-0.010;2024-02-21T06:10:36;14.48;;;2.55;;
41309;SDS011;27057;51.438;-0.010;2024-02-21T06:13:03;13.30;;;2.72;;
41309;SDS011;27057;51.438;-0.010;2024-02-21T06:15:30;20.00;;;4.05;;
41309;SDS011;27057;51.438;-0.010;2024-02-21T06:17:58;18.52;;;2.53;;
41309;SDS011;27057;51.438;-0.010;2024-02-21T06:20:25;12.63;;;2.88;;
41309;SDS011;27057;51.438;-0.010;2024-02-21T06:22:53;14.43;;;2.67;;
41309;SDS011;27057;51.438;-0.010;2024-02-21T06:25:21;16.65;;;2.70;;
41309;SDS011;27057;51.438;-0.010;2024-02-21T06:27:48;14.90;;;2.80;;
41309;SDS011;27057;51.438;-0.010;2024-02-21T06:30:15;4.82;;;1.77;;
41309;SDS011;27057;51.438;-0.010;2024-02-21T06:32:43;7.15;;;1.23;;
41309;SDS011;27057;51.438;-0.010;2024-02-21T06:35:10;7.93;;;2.42;;
41309;SDS011;27057;51.438;-0.010;2024-02-21T06:37:37;5.13;;;1.70;;
41309;SDS011;27057;51.438;-0.010;2024-02-21T06:40:06;4.43;;;1.65;;
41309;SDS011;27057;51.438;-0.010;2024-02-21T06:42:34;12.50;;;1.85;;
41309;SDS011;27057;51.438;-0.010;2024-02-21T06:45:01;10.20;;;1.98;;
41309;SDS011;27057;51.438;-0.010;2024-02-21T06:47:29;7.07;;;1.70;;
41309;SDS011;27057;51.438;-0.010;2024-02-21T06:49:56;12.30;;;1.92;;
41309;SDS011;27057;51.438;-0.010;2024-02-21T06:52:23;8.68;;;1.60;;
41309;SDS011;27057;51.438;-0.010;2024-02-21T06:54:51;4.88;;;1.23;;
41309;SDS011;27057;51.438;-0.010;2024-02-21T06:57:19;21.85;;;5.60;;
41309;SDS011;27057;51.438;-0.010;2024-02-21T06:59:46;6.07;;;1.67;;
41309;SDS011;27057;51.438;-0.010;2024-02-21T07:02:13;15.52;;;1.80;;
41309;SDS011;27057;51.438;-0.010;2024-02-21T07:04:41;6.65;;;1.63;;
41309;SDS011;27057;51.438;-0.010;2024-02-21T07:07:09;4.93;;;1.55;;
41309;SDS011;27057;51.438;-0.010;2024-02-21T07:09:36;5.63;;;1.88;;
41309;SDS011;27057;51.438;-0.010;2024-02-21T07:12:04;4.28;;;1.50;;
41309;SDS011;27057;51.438;-0.010;2024-02-21T07:14:32;8.55;;;2.15;;
41309;SDS011;27057;51.438;-0.010;2024-02-21T07:16:59;5.80;;;1.67;;
41309;SDS011;27057;51.438;-0.010;2024-02-21T07:19:27;9.32;;;1.42;;
41309;SDS011;27057;51.438;-0.010;2024-02-21T07:21:54;5.28;;;1.60;;
41309;SDS011;27057;51.438;-0.010;2024-02-21T07:24:22;1.70;;;1.23;;
41309;SDS011;27057;51.438;-0.010;2024-02-21T07:26:49;15.02;;;2.08;;
41309;SDS011;27057;51.438;-0.010;2024-02-21T07:29:17;5.20;;;1.38;;
41309;SDS011;27057;51.438;-0.010;2024-02-21T07:31:44;5.97;;;1.17;;
41309;SDS011;27057;51.438;-0.010;2024-02-21T07:34:12;16.55;;;2.45;;
41309;SDS011;27057;51.438;-0.010;2024-02-21T07:36:39;8.82;;;1.73;;
41309;SDS011;27057;51.438;-0.010;2024-02-21T07:39:06;10.07;;;2.35;;
41309;SDS011;27057;51.438;-0.010;2024-02-21T07:41:34;6.38;;;1.45;;
41309;SDS011;27057;51.438;-0.010;2024-02-21T07:44:01;7.68;;;2.50;;
41309;SDS011;27057;51.438;-0.010;2024-02-21T07:46:30;4.13;;;1.75;;
41309;SDS011;27057;51.438;-0.010;2024-02-21T07:48:57;15.27;;;2.70;;
41309;SDS011;27057;51.438;-0.010;2024-02-21T07:51:27;3.80;;;1.17;;
41309;SDS011;27057;51.438;-0.010;2024-02-21T07:53:55;10.05;;;1.92;;
41309;SDS011;27057;51.438;-0.010;2024-02-21T07:56:22;11.70;;;1.67;;
41309;SDS011;27057;51.438;-0.010;2024-02-21T07:58:50;6.05;;;1.92;;
41309;SDS011;27057;51.438;-0.010;2024-02-21T08:01:20;19.02;;;2.88;;
41309;SDS011;27057;51.438;-0.010;2024-02-21T08:03:48;19.17;;;3.15;;
41309;SDS011;27057;51.438;-0.010;2024-02-21T08:06:15;8.95;;;3.00;;
41309;SDS011;27057;51.438;-0.010;2024-02-21T08:08:43;13.23;;;2.10;;
41309;SDS011;27057;51.438;-0.010;2024-02-21T08:11:10;11.68;;;2.15;;
41309;SDS011;27057;51.438;-0.010;2024-02-21T08:13:38;17.67;;;3.35;;
41309;SDS011;27057;51.438;-0.010;2024-02-21T08:16:06;18.10;;;3.00;;
41309;SDS011;27057;51.438;-0.010;2024-02-21T08:18:33;4.18;;;1.67;;
41309;SDS011;27057;51.438;-0.010;2024-02-21T08:21:03;11.25;;;2.20;;
41309;SDS011;27057;51.438;-0.010;2024-02-21T08:23:31;13.23;;;2.53;;
41309;SDS011;27057;51.438;-0.010;2024-02-21T08:25:59;10.30;;;2.13;;
41309;SDS011;27057;51.438;-0.010;2024-02-21T08:28:26;21.10;;;3.60;;
41309;SDS011;27057;51.438;-0.010;2024-02-21T08:30:57;15.05;;;2.85;;
41309;SDS011;27057;51.438;-0.010;2024-02-21T08:33:25;5.28;;;1.63;;
41309;SDS011;27057;51.438;-0.010;2024-02-21T08:35:52;10.18;;;2.63;;
41309;SDS011;27057;51.438;-0.010;2024-02-21T08:38:20;10.05;;;2.63;;
41309;SDS011;27057;51.438;-0.010;2024-02-21T08:40:47;7.38;;;2.00;;
41309;SDS011;27057;51.438;-0.010;2024-02-21T08:43:15;11.30;;;2.65;;
41309;SDS011;27057;51.438;-0.010;2024-02-21T08:45:42;17.85;;;2.78;;
41309;SDS011;27057;51.438;-0.010;2024-02-21T08:48:10;14.10;;;3.88;;
41309;SDS011;27057;51.438;-0.010;2024-02-21T08:50:37;9.40;;;2.92;;
41309;SDS011;27057;51.438;-0.010;2024-02-21T08:53:06;11.75;;;3.47;;
41309;SDS011;27057;51.438;-0.010;2024-02-21T08:55:34;9.75;;;2.33;;
41309;SDS011;27057;51.438;-0.010;2024-02-21T08:58:02;10.70;;;2.08;;
41309;SDS011;27057;51.438;-0.010;2024-02-21T09:00:31;9.55;;;2.83;;
41309;SDS011;27057;51.438;-0.010;2024-02-21T09:02:58;11.88;;;2.38;;
41309;SDS011;27057;51.438;-0.010;2024-02-21T09:05:26;14.10;;;2.45;;
41309;SDS011;27057;51.438;-0.010;2024-02-21T09:07:53;14.73;;;2.65;;
41309;SDS011;27057;51.438;-0.010;2024-02-21T09:10:22;8.65;;;1.95;;
41309;SDS011;27057;51.438;-0.010;2024-02-21T09:12:50;16.20;;;2.13;;
41309;SDS011;27057;51.438;-0.010;2024-02-21T09:15:21;8.02;;;1.63;;
41309;SDS011;27057;51.438;-0.010;2024-02-21T09:17:48;14.52;;;1.80;;
41309;SDS011;27057;51.438;-0.010;2024-02-21T09:20:22;6.20;;;1.77;;
41309;SDS011;27057;51.438;-0.010;2024-02-21T09:23:08;4.35;;;0.93;;
41309;SDS011;27057;51.438;-0.010;2024-02-21T09:25:36;15.65;;;2.10;;
41309;SDS011;27057;51.438;-0.010;2024-02-21T09:28:07;13.60;;;2.17;;
41309;SDS011;27057;51.438;-0.010;2024-02-21T09:30:40;10.82;;;2.00;;
41309;SDS011;27057;51.438;-0.010;2024-02-21T09:33:07;15.50;;;2.17;;
41309;SDS011;27057;51.438;-0.010;2024-02-21T09:35:46;11.75;;;2.17;;
41309;SDS011;27057;51.438;-0.010;2024-02-21T09:38:16;10.60;;;1.92;;
41309;SDS011;27057;51.438;-0.010;2024-02-21T09:40:45;3.88;;;1.13;;
41309;SDS011;27057;51.438;-0.010;2024-02-21T09:43:19;23.30;;;2.60;;
41309;SDS011;27057;51.438;-0.010;2024-02-21T09:45:48;10.68;;;2.30;;
41309;SDS011;27057;51.438;-0.010;2024-02-21T09:48:25;13.68;;;2.08;;
41309;SDS011;27057;51.438;-0.010;2024-02-21T09:51:08;12.75;;;1.90;;
41309;SDS011;27057;51.438;-0.010;2024-02-21T09:53:39;15.27;;;2.35;;
41309;SDS011;27057;51.438;-0.010;2024-02-21T09:56:14;11.70;;;1.80;;
41309;SDS011;27057;51.438;-0.010;2024-02-21T09:58:42;17.48;;;1.92;;
41309;SDS011;27057;51.438;-0.010;2024-02-21T10:01:10;7.05;;;1.50;;
41309;SDS011;27057;51.438;-0.010;2024-02-21T10:03:55;3.80;;;1.00;;
41309;SDS011;27057;51.438;-0.010;2024-02-21T10:06:25;6.43;;;1.13;;
41309;SDS011;27057;51.438;-0.010;2024-02-21T10:08:53;11.95;;;2.00;;
41309;SDS011;27057;51.438;-0.010;2024-02-21T10:11:22;8.18;;;1.70;;
41309;SDS011;27057;51.438;-0.010;2024-02-21T10:14:08;5.00;;;1.17;;
41309;SDS011;27057;51.438;-0.010;2024-02-21T10:16:39;6.80;;;1.60;;
41309;SDS011;27057;51.438;-0.010;2024-02-21T10:19:15;8.20;;;1.90;;
41309;SDS011;27057;51.438;-0.010;2024-02-21T10:21:44;2.53;;;1.00;;
41309;SDS011;27057;51.438;-0.010;2024-02-21T10:24:27;5.35;;;1.00;;
41309;SDS011;27057;51.438;-0.010;2024-02-21T10:27:01;7.43;;;1.10;;
41309;SDS011;27057;51.438;-0.010;2024-02-21T10:29:31;7.28;;;1.45;;
41309;SDS011;27057;51.438;-0.010;2024-02-21T10:32:09;6.60;;;1.63;;
41309;SDS011;27057;51.438;-0.010;2024-02-21T10:34:40;5.47;;;1.45;;
41309;SDS011;27057;51.438;-0.010;2024-02-21T10:37:11;12.25;;;1.92;;
41309;SDS011;27057;51.438;-0.010;2024-02-21T10:39:41;6.75;;;2.08;;
41309;SDS011;27057;51.438;-0.010;2024-02-21T10:42:13;5.53;;;1.75;;
41309;SDS011;27057;51.438;-0.010;2024-02-21T10:44:44;4.32;;;1.05;;
41309;SDS011;27057;51.438;-0.010;2024-02-21T10:47:18;7.20;;;1.50;;
41309;SDS011;27057;51.438;-0.010;2024-02-21T10:49:49;3.47;;;1.25;;
41309;SDS011;27057;51.438;-0.010;2024-02-21T10:55:22;2.80;;;1.63;;
41309;SDS011;27057;51.438;-0.010;2024-02-21T10:58:02;5.22;;;1.80;;
41309;SDS011;27057;51.438;-0.010;2024-02-21T11:00:30;6.93;;;1.75;;
41309;SDS011;27057;51.438;-0.010;2024-02-21T11:03:00;7.00;;;1.50;;
41309;SDS011;27057;51.438;-0.010;2024-02-21T11:05:29;12.80;;;3.25;;
41309;SDS011;27057;51.438;-0.010;2024-02-21T11:07:58;4.72;;;1.30;;
41309;SDS011;27057;51.438;-0.010;2024-02-21T11:10:26;5.82;;;1.08;;
41309;SDS011;27057;51.438;-0.010;2024-02-21T11:13:07;4.03;;;1.63;;
41309;SDS011;27057;51.438;-0.010;2024-02-21T11:15:35;4.68;;;1.17;;
41309;SDS011;27057;51.438;-0.010;2024-02-21T11:18:03;5.75;;;1.52;;
41309;SDS011;27057;51.438;-0.010;2024-02-21T11:20:32;3.42;;;1.10;;
41309;SDS011;27057;51.438;-0.010;2024-02-21T11:23:03;5.18;;;1.25;;
41309;SDS011;27057;51.438;-0.010;2024-02-21T11:25:32;8.13;;;1.08;;
41309;SDS011;27057;51.438;-0.010;2024-02-21T11:28:05;7.82;;;1.20;;
41309;SDS011;27057;51.438;-0.010;2024-02-21T11:30:37;2.28;;;1.00;;
41309;SDS011;27057;51.438;-0.010;2024-02-21T11:33:07;2.05;;;0.93;;
41309;SDS011;27057;51.438;-0.010;2024-02-21T11:35:43;5.07;;;0.88;;
41309;SDS011;27057;51.438;-0.010;2024-02-21T11:38:11;3.45;;;0.60;;
41309;SDS011;27057;51.438;-0.010;2024-02-21T11:40:44;2.63;;;0.90;;
41309;SDS011;27057;51.438;-0.010;2024-02-21T11:43:13;2.17;;;0.90;;
41309;SDS011;27057;51.438;-0.010;2024-02-21T11:45:40;2.00;;;0.82;;
41309;SDS011;27057;51.438;-0.010;2024-02-21T11:48:08;3.20;;;0.68;;
41309;SDS011;27057;51.438;-0.010;2024-02-21T11:50:35;2.78;;;1.48;;
41309;SDS011;27057;51.438;-0.010;2024-02-21T11:53:03;3.40;;;0.57;;
41309;SDS011;27057;51.438;-0.010;2024-02-21T11:55:31;0.55;;;0.55;;
41309;SDS011;27057;51.438;-0.010;2024-02-21T11:57:58;1.23;;;0.60;;
41309;SDS011;27057;51.438;-0.010;2024-02-21T12:00:26;1.45;;;0.73;;
41309;SDS011;27057;51.438;-0.010;2024-02-21T12:02:54;3.97;;;1.55;;
41309;SDS011;27057;51.438;-0.010;2024-02-21T12:05:27;3.28;;;0.45;;
41309;SDS011;27057;51.438;-0.010;2024-02-21T12:07:56;1.60;;;0.50;;
41309;SDS011;27057;51.438;-0.010;2024-02-21T12:10:28;3.72;;;0.90;;
41309;SDS011;27057;51.438;-0.010;2024-02-21T12:13:05;2.15;;;0.50;;
41309;SDS011;27057;51.438;-0.010;2024-02-21T12:15:34;1.77;;;0.75;;
41309;SDS011;27057;51.438;-0.010;2024-02-21T12:18:01;2.80;;;0.70;;
41309;SDS011;27057;51.438;-0.010;2024-02-21T12:20:30;1.90;;;0.85;;
41309;SDS011;27057;51.438;-0.010;2024-02-21T12:23:02;1.65;;;0.75;;
41309;SDS011;27057;51.438;-0.010;2024-02-21T12:25:31;2.40;;;0.50;;
41309;SDS011;27057;51.438;-0.010;2024-02-21T12:27:58;2.30;;;0.82;;
41309;SDS011;27057;51.438;-0.010;2024-02-21T12:30:27;0.50;;;0.50;;
41309;SDS011;27057;51.438;-0.010;2024-02-21T12:32:54;0.75;;;0.43;;
41309;SDS011;27057;51.438;-0.010;2024-02-21T12:35:24;1.15;;;0.60;;
41309;SDS011;27057;51.438;-0.010;2024-02-21T12:37:51;5.78;;;0.70;;
41309;SDS011;27057;51.438;-0.010;2024-02-21T12:40:19;2.30;;;0.82;;
41309;SDS011;27057;51.438;-0.010;2024-02-21T12:42:46;4.95;;;0.88;;
41309;SDS011;27057;51.438;-0.010;2024-02-21T12:45:14;3.60;;;0.50;;
41309;SDS011;27057;51.438;-0.010;2024-02-21T12:47:43;7.18;;;1.02;;
41309;SDS011;27057;51.438;-0.010;2024-02-21T12:50:10;4.95;;;1.20;;
41309;SDS011;27057;51.438;-0.010;2024-02-21T12:52:38;1.17;;;0.75;;
41309;SDS011;27057;51.438;-0.010;2024-02-21T12:55:05;1.23;;;0.50;;
41309;SDS011;27057;51.438;-0.010;2024-02-21T12:57:33;7.97;;;0.95;;
41309;SDS011;27057;51.438;-0.010;2024-02-21T13:00:00;0.68;;;0.60;;
41309;SDS011;27057;51.438;-0.010;2024-02-21T13:02:27;2.40;;;0.80;;
41309;SDS011;27057;51.438;-0.010;2024-02-21T13:04:55;2.50;;;0.75;;
41309;SDS011;27057;51.438;-0.010;2024-02-21T13:07:23;2.33;;;0.80;;
41309;SDS011;27057;51.438;-0.010;2024-02-21T13:09:50;1.63;;;0.73;;
41309;SDS011;27057;51.438;-0.010;2024-02-21T13:12:17;1.10;;;0.60;;
41309;SDS011;27057;51.438;-0.010;2024-02-21T13:14:45;0.40;;;0.40;;
41309;SDS011;27057;51.438;-0.010;2024-02-21T13:17:12;1.55;;;0.95;;
41309;SDS011;27057;51.438;-0.010;2024-02-21T13:19:41;0.50;;;0.50;;
41309;SDS011;27057;51.438;-0.010;2024-02-21T13:22:09;4.35;;;1.40;;
41309;SDS011;27057;51.438;-0.010;2024-02-21T13:24:38;1.38;;;0.50;;
41309;SDS011;27057;51.438;-0.010;2024-02-21T13:27:05;4.57;;;0.50;;
41309;SDS011;27057;51.438;-0.010;2024-02-21T13:29:32;3.72;;;0.65;;
41309;SDS011;27057;51.438;-0.010;2024-02-21T13:32:00;2.25;;;0.75;;
41309;SDS011;27057;51.438;-0.010;2024-02-21T13:34:28;1.02;;;0.50;;
41309;SDS011;27057;51.438;-0.010;2024-02-21T13:36:55;2.00;;;0.60;;
41309;SDS011;27057;51.438;-0.010;2024-02-21T13:39:23;5.95;;;1.30;;
41309;SDS011;27057;51.438;-0.010;2024-02-21T13:41:50;1.08;;;0.50;;
41309;SDS011;27057;51.438;-0.010;2024-02-21T13:44:18;2.50;;;0.60;;
41309;SDS011;27057;51.438;-0.010;2024-02-21T13:46:45;4.32;;;0.60;;
41309;SDS011;27057;51.438;-0.010;2024-02-21T13:49:13;4.30;;;0.85;;
41309;SDS011;27057;51.438;-0.010;2024-02-21T13:51:40;1.33;;;0.68;;
41309;SDS011;27057;51.438;-0.010;2024-02-21T13:54:09;2.42;;;0.65;;
41309;SDS011;27057;51.438;-0.010;2024-02-21T13:56:38;0.75;;;0.60;;
41309;SDS011;27057;51.438;-0.010;2024-02-21T13:59:05;2.42;;;0.88;;
41309;SDS011;27057;51.438;-0.010;2024-02-21T14:01:33;0.50;;;0.50;;
41309;SDS011;27057;51.438;-0.010;2024-02-21T14:04:00;0.75;;;0.50;;
41309;SDS011;27057;51.438;-0.010;2024-02-21T14:06:28;3.30;;;0.88;;
41309;SDS011;27057;51.438;-0.010;2024-02-21T14:08:55;18.33;;;1.23;;
41309;SDS011;27057;51.438;-0.010;2024-02-21T14:11:23;1.67;;;0.60;;
41309;SDS011;27057;51.438;-0.010;2024-02-21T14:13:51;1.38;;;0.40;;
41309;SDS011;27057;51.438;-0.010;2024-02-21T14:16:18;2.13;;;0.80;;
41309;SDS011;27057;51.438;-0.010;2024-02-21T14:18:46;5.05;;;0.82;;
41309;SDS011;27057;51.438;-0.010;2024-02-21T14:21:14;1.75;;;0.55;;
41309;SDS011;27057;51.438;-0.010;2024-02-21T14:23:41;5.28;;;0.88;;
41309;SDS011;27057;51.438;-0.010;2024-02-21T14:26:08;2.83;;;0.75;;
41309;SDS011;27057;51.438;-0.010;2024-02-21T14:28:36;1.42;;;0.52;;
41309;SDS011;27057;51.438;-0.010;2024-02-21T14:31:04;2.25;;;0.82;;
41309;SDS011;27057;51.438;-0.010;2024-02-21T14:33:33;8.48;;;1.00;;
41309;SDS011;27057;51.438;-0.010;2024-02-21T14:36:01;3.30;;;0.55;;
41309;SDS011;27057;51.438;-0.010;2024-02-21T14:38:29;1.27;;;0.73;;